createdAt,value
2019-05-01T00:00:35.272Z,0.00
2019-05-01T00:01:35.336Z,0.00
2019-05-01T00:02:35.362Z,0.00
2019-05-01T00:03:35.401Z,0.00
2019-05-01T00:04:35.447Z,0.00
2019-05-01T00:05:35.493Z,0.00
2019-05-01T00:06:35.554Z,0.00
2019-05-01T00:07:35.577Z,0.00
2019-05-01T00:08:35.626Z,0.00
2019-05-01T00:09:35.662Z,0.00
2019-05-01T00:10:35.711Z,0.00
2019-05-01T00:11:35.768Z,0.00
2019-05-01T00:12:35.789Z,0.00
2019-05-01T00:13:35.838Z,0.00
2019-05-01T00:14:35.901Z,0.00
2019-05-01T00:15:35.919Z,0.00
2019-05-01T00:16:35.980Z,0.00
2019-05-01T00:17:36.024Z,0.00
2019-05-01T00:18:36.055Z,0.00
2019-05-01T00:19:36.091Z,0.00
2019-05-01T00:20:36.138Z,0.00
2019-05-01T00:21:36.195Z,0.00
2019-05-01T00:22:36.247Z,0.00
2019-05-01T00:23:36.267Z,0.00
2019-05-01T00:24:36.307Z,0.00
2019-05-01T00:25:36.349Z,0.00
2019-05-01T00:26:36.398Z,0.00
2019-05-01T00:27:36.456Z,0.00
2019-05-01T00:28:36.482Z,0.00
2019-05-01T00:29:36.531Z,0.00
2019-05-01T00:30:36.593Z,0.00
2019-05-01T00:31:36.611Z,0.00
2019-05-01T00:32:36.675Z,0.00
2019-05-01T00:33:36.696Z,0.00
2019-05-01T00:34:36.738Z,0.00
2019-05-01T00:35:36.781Z,0.00
2019-05-01T00:36:36.830Z,0.00
2019-05-01T00:37:36.935Z,0.00
2019-05-01T00:38:36.914Z,0.00
2019-05-01T00:39:36.975Z,0.00
2019-05-01T00:40:37.038Z,0.00
2019-05-01T00:41:37.044Z,0.00
2019-05-01T00:42:37.114Z,0.00
2019-05-01T00:43:37.146Z,0.00
2019-05-01T00:44:37.169Z,0.00
2019-05-01T00:45:37.214Z,0.00
2019-05-01T00:46:37.264Z,0.00
2019-05-01T00:47:37.297Z,0.00
2019-05-01T00:48:37.368Z,0.00
2019-05-01T00:49:37.383Z,0.00
2019-05-01T00:50:37.426Z,0.00
2019-05-01T00:51:37.468Z,0.00
2019-05-01T00:52:37.516Z,0.00
2019-05-01T00:53:37.583Z,0.00
2019-05-01T00:54:37.599Z,0.00
2019-05-01T00:55:37.643Z,0.00
2019-05-01T00:56:37.685Z,0.00
2019-05-01T00:57:37.730Z,0.00
2019-05-01T00:58:37.800Z,0.00
2019-05-01T00:59:37.813Z,0.00
2019-05-01T01:00:43.172Z,0.00
2019-05-01T01:01:37.902Z,0.00
2019-05-01T01:02:37.944Z,0.00
2019-05-01T01:03:38.003Z,0.00
2019-05-01T01:04:38.029Z,0.00
2019-05-01T01:05:38.077Z,0.00
2019-05-01T01:06:38.116Z,0.00
2019-05-01T01:07:38.155Z,0.00
2019-05-01T01:08:38.218Z,0.00
2019-05-01T01:09:38.254Z,0.00
2019-05-01T01:10:38.283Z,0.00
2019-05-01T01:11:38.385Z,0.00
2019-05-01T01:12:38.386Z,0.00
2019-05-01T01:13:38.433Z,0.00
2019-05-01T01:14:38.458Z,0.00
2019-05-01T01:15:38.501Z,0.00
2019-05-01T01:16:38.550Z,0.00
2019-05-01T01:17:38.583Z,0.00
2019-05-01T01:18:38.662Z,0.00
2019-05-01T01:19:38.667Z,0.00
2019-05-01T01:20:38.710Z,0.00
2019-05-01T01:21:38.753Z,0.00
2019-05-01T01:22:38.801Z,0.00
2019-05-01T01:23:38.858Z,0.00
2019-05-01T01:24:38.903Z,0.00
2019-05-01T01:25:38.932Z,0.00
2019-05-01T01:26:38.969Z,0.00
2019-05-01T01:27:39.012Z,0.00
2019-05-01T01:28:39.052Z,0.00
2019-05-01T01:29:39.112Z,0.00
2019-05-01T01:30:39.140Z,0.00
2019-05-01T01:31:39.178Z,0.00
2019-05-01T01:32:39.225Z,0.00
2019-05-01T01:33:39.266Z,0.00
2019-05-01T01:34:39.348Z,0.00
2019-05-01T01:35:39.349Z,0.00
2019-05-01T01:36:39.394Z,0.00
2019-05-01T01:37:39.436Z,0.00
2019-05-01T01:38:39.482Z,0.00
2019-05-01T01:39:39.537Z,0.00
2019-05-01T01:40:39.566Z,0.00
2019-05-01T01:41:39.617Z,0.00
2019-05-01T01:42:39.652Z,0.00
2019-05-01T01:43:39.762Z,0.00
2019-05-01T01:44:39.759Z,0.00
2019-05-01T01:45:39.780Z,0.00
2019-05-01T01:46:39.826Z,0.00
2019-05-01T01:47:39.864Z,0.00
2019-05-01T01:48:39.912Z,0.00
2019-05-01T01:49:39.980Z,0.00
2019-05-01T01:50:40.008Z,0.00
2019-05-01T01:51:40.042Z,0.00
2019-05-01T01:52:40.087Z,0.00
2019-05-01T01:53:40.123Z,0.00
2019-05-01T01:54:40.195Z,0.00
2019-05-01T01:55:40.202Z,0.00
2019-05-01T01:56:40.245Z,0.00
2019-05-01T01:57:40.315Z,0.00
2019-05-01T01:58:40.333Z,0.00
2019-05-01T01:59:40.392Z,0.00
2019-05-01T02:00:40.424Z,0.00
2019-05-01T02:01:40.460Z,0.00
2019-05-01T02:02:40.505Z,0.00
2019-05-01T02:03:40.543Z,0.00
2019-05-01T02:04:40.609Z,0.00
2019-05-01T02:05:40.648Z,0.00
2019-05-01T02:06:40.673Z,0.00
2019-05-01T02:07:40.715Z,0.00
2019-05-01T02:08:40.757Z,0.00
2019-05-01T02:09:40.803Z,0.00
2019-05-01T02:10:43.065Z,0.00
2019-05-01T02:11:40.907Z,0.00
2019-05-01T02:12:40.947Z,0.00
2019-05-01T02:13:40.973Z,0.00
2019-05-01T02:14:41.016Z,0.00
2019-05-01T02:15:41.093Z,0.00
2019-05-01T02:16:41.098Z,0.00
2019-05-01T02:17:41.142Z,0.00
2019-05-01T02:18:41.184Z,0.00
2019-05-01T02:19:41.255Z,0.00
2019-05-01T02:20:41.293Z,0.00
2019-05-01T02:21:41.310Z,0.00
2019-05-01T02:22:41.356Z,0.00
2019-05-01T02:23:41.405Z,0.00
2019-05-01T02:24:41.437Z,0.00
2019-05-01T02:25:41.508Z,0.00
2019-05-01T02:26:41.522Z,0.00
2019-05-01T02:27:41.567Z,0.00
2019-05-01T02:28:41.608Z,0.00
2019-05-01T02:29:41.649Z,0.00
2019-05-01T02:30:41.819Z,0.00
2019-05-01T02:31:41.744Z,0.00
2019-05-01T02:32:41.779Z,0.00
2019-05-01T02:33:41.835Z,0.00
2019-05-01T02:34:41.864Z,0.00
2019-05-01T02:35:41.932Z,0.00
2019-05-01T02:36:41.951Z,0.00
2019-05-01T02:37:42.011Z,0.00
2019-05-01T02:38:42.033Z,0.00
2019-05-01T02:39:42.079Z,0.00
2019-05-01T02:40:42.157Z,0.00
2019-05-01T02:41:42.218Z,0.00
2019-05-01T02:42:42.208Z,0.00
2019-05-01T02:43:42.246Z,0.00
2019-05-01T02:44:42.289Z,0.00
2019-05-01T02:45:42.330Z,0.00
2019-05-01T02:46:42.402Z,0.00
2019-05-01T02:47:42.427Z,0.00
2019-05-01T02:48:42.459Z,0.00
2019-05-01T02:49:42.500Z,0.00
2019-05-01T02:50:42.542Z,0.00
2019-05-01T02:51:42.610Z,0.00
2019-05-01T02:52:42.626Z,0.00
2019-05-01T02:53:42.675Z,0.00
2019-05-01T02:54:42.711Z,0.00
2019-05-01T02:55:42.841Z,0.00
2019-05-01T02:56:42.817Z,0.00
2019-05-01T02:57:42.840Z,0.00
2019-05-01T02:58:42.884Z,0.00
2019-05-01T02:59:42.923Z,0.00
2019-05-01T03:00:42.963Z,0.00
2019-05-01T03:01:47.817Z,0.00
2019-05-01T03:02:43.144Z,0.00
2019-05-01T03:03:43.091Z,0.00
2019-05-01T03:04:43.131Z,0.00
2019-05-01T03:05:43.180Z,0.00
2019-05-01T03:06:43.250Z,0.00
2019-05-01T03:07:43.261Z,0.00
2019-05-01T03:08:43.309Z,0.00
2019-05-01T03:09:43.363Z,0.00
2019-05-01T03:10:43.385Z,0.00
2019-05-01T03:11:43.465Z,0.00
2019-05-01T03:12:43.469Z,0.00
2019-05-01T03:13:43.514Z,0.00
2019-05-01T03:14:43.566Z,0.00
2019-05-01T03:15:43.595Z,0.00
2019-05-01T03:16:43.671Z,0.00
2019-05-01T03:17:43.680Z,0.00
2019-05-01T03:18:43.722Z,0.00
2019-05-01T03:19:43.764Z,0.00
2019-05-01T03:20:43.811Z,0.00
2019-05-01T03:21:43.873Z,0.00
2019-05-01T03:22:43.915Z,0.00
2019-05-01T03:23:43.934Z,0.00
2019-05-01T03:24:43.976Z,0.00
2019-05-01T03:25:44.017Z,0.00
2019-05-01T03:26:44.063Z,0.00
2019-05-01T03:27:44.125Z,0.00
2019-05-01T03:28:44.151Z,0.00
2019-05-01T03:29:44.188Z,0.00
2019-05-01T03:30:44.232Z,0.00
2019-05-01T03:31:44.307Z,0.00
2019-05-01T03:32:44.341Z,4.00
2019-05-01T03:33:44.359Z,4.00
2019-05-01T03:34:51.529Z,4.00
2019-05-01T03:35:44.437Z,4.00
2019-05-01T03:36:44.483Z,4.00
2019-05-01T03:37:44.545Z,8.00
2019-05-01T03:38:44.563Z,4.00
2019-05-01T03:39:44.614Z,8.00
2019-05-01T03:40:44.647Z,8.00
2019-05-01T03:41:44.708Z,8.00
2019-05-01T03:42:44.753Z,12.00
2019-05-01T03:43:44.778Z,16.00
2019-05-01T03:44:44.820Z,16.00
2019-05-01T03:45:44.861Z,20.00
2019-05-01T03:46:44.899Z,24.00
2019-05-01T03:47:44.964Z,28.00
2019-05-01T03:48:45.005Z,28.00
2019-05-01T03:49:45.030Z,36.00
2019-05-01T03:50:47.105Z,40.00
2019-05-01T03:51:45.108Z,48.00
2019-05-01T03:52:45.150Z,56.00
2019-05-01T03:53:45.212Z,68.00
2019-05-01T03:54:45.238Z,76.00
2019-05-01T03:55:45.277Z,88.00
2019-05-01T03:56:45.321Z,104.00
2019-05-01T03:57:45.381Z,116.00
2019-05-01T03:58:45.428Z,132.00
2019-05-01T03:59:45.447Z,148.00
2019-05-01T04:00:45.487Z,168.00
2019-05-01T04:01:45.527Z,192.00
2019-05-01T04:02:45.583Z,212.00
2019-05-01T04:03:45.635Z,236.00
2019-05-01T04:04:45.744Z,264.00
2019-05-01T04:05:45.694Z,288.00
2019-05-01T04:06:45.767Z,320.00
2019-05-01T04:07:45.778Z,348.00
2019-05-01T04:08:45.837Z,380.00
2019-05-01T04:09:45.877Z,416.00
2019-05-01T04:10:45.911Z,452.00
2019-05-01T04:11:45.946Z,492.00
2019-05-01T04:12:45.995Z,532.00
2019-05-01T04:13:46.057Z,572.00
2019-05-01T04:14:46.071Z,612.00
2019-05-01T04:15:46.119Z,656.00
2019-05-01T04:16:46.157Z,700.00
2019-05-01T04:17:46.198Z,744.00
2019-05-01T04:18:46.280Z,792.00
2019-05-01T04:19:46.305Z,852.00
2019-05-01T04:20:46.318Z,900.00
2019-05-01T04:21:46.364Z,948.00
2019-05-01T04:22:46.521Z,1000.00
2019-05-01T04:23:46.446Z,1056.00
2019-05-01T04:24:46.515Z,1108.00
2019-05-01T04:25:46.529Z,1160.00
2019-05-01T04:26:46.571Z,1188.00
2019-05-01T04:27:46.621Z,1244.00
2019-05-01T04:28:46.653Z,1296.00
2019-05-01T04:29:46.731Z,1356.00
2019-05-01T04:30:46.738Z,1416.00
2019-05-01T04:31:46.783Z,1472.00
2019-05-01T04:32:52.652Z,1536.00
2019-05-01T04:33:46.888Z,1596.00
2019-05-01T04:34:46.937Z,1656.00
2019-05-01T04:35:47.578Z,1716.00
2019-05-01T04:36:46.993Z,1780.00
2019-05-01T04:37:47.027Z,1840.00
2019-05-01T04:38:47.081Z,1904.00
2019-05-01T04:39:47.132Z,1964.00
2019-05-01T04:40:47.157Z,2032.00
2019-05-01T04:41:47.196Z,2092.00
2019-05-01T04:42:47.238Z,2156.00
2019-05-01T04:43:47.304Z,2216.00
2019-05-01T04:44:47.336Z,2276.00
2019-05-01T04:45:47.384Z,2340.00
2019-05-01T04:46:47.404Z,2396.00
2019-05-01T04:47:47.444Z,2460.00
2019-05-01T04:48:47.511Z,2524.00
2019-05-01T04:49:47.546Z,2576.00
2019-05-01T04:50:47.595Z,2636.00
2019-05-01T04:51:47.617Z,2696.00
2019-05-01T04:52:47.652Z,2748.00
2019-05-01T04:53:47.711Z,2808.00
2019-05-01T04:54:47.743Z,2868.00
2019-05-01T04:55:47.805Z,2924.00
2019-05-01T04:56:47.818Z,2976.00
2019-05-01T04:57:47.867Z,3036.00
2019-05-01T04:58:47.900Z,3092.00
2019-05-01T04:59:48.051Z,3152.00
2019-05-01T05:00:48.005Z,3208.00
2019-05-01T05:01:48.032Z,3264.00
2019-05-01T05:02:48.071Z,3320.00
2019-05-01T05:03:48.110Z,3368.00
2019-05-01T05:04:48.167Z,3420.00
2019-05-01T05:05:48.224Z,3468.00
2019-05-01T05:06:48.302Z,3516.00
2019-05-01T05:07:48.277Z,3572.00
2019-05-01T05:08:48.319Z,3620.00
2019-05-01T05:09:48.359Z,3668.00
2019-05-01T05:10:48.432Z,3724.00
2019-05-01T05:11:48.452Z,3768.00
2019-05-01T05:12:48.489Z,3840.00
2019-05-01T05:13:48.528Z,3876.00
2019-05-01T05:14:48.573Z,3932.00
2019-05-01T05:15:48.631Z,3984.00
2019-05-01T05:16:48.683Z,4028.00
2019-05-01T05:17:48.701Z,4084.00
2019-05-01T05:18:48.739Z,4132.00
2019-05-01T05:19:48.784Z,4172.00
2019-05-01T05:20:48.843Z,4208.00
2019-05-01T05:21:48.888Z,4252.00
2019-05-01T05:22:48.910Z,4300.00
2019-05-01T05:23:48.948Z,4352.00
2019-05-01T05:24:48.993Z,4404.00
2019-05-01T05:25:49.031Z,4460.00
2019-05-01T05:26:49.104Z,4512.00
2019-05-01T05:27:49.116Z,4556.00
2019-05-01T05:28:49.162Z,4596.00
2019-05-01T05:29:49.214Z,4644.00
2019-05-01T05:30:49.247Z,4692.00
2019-05-01T05:31:49.475Z,4744.00
2019-05-01T05:32:49.368Z,4792.00
2019-05-01T05:33:49.374Z,4848.00
2019-05-01T05:34:49.421Z,4892.00
2019-05-01T05:35:49.457Z,4940.00
2019-05-01T05:36:49.529Z,4992.00
2019-05-01T05:37:49.542Z,5044.00
2019-05-01T05:38:49.587Z,5104.00
2019-05-01T05:39:49.631Z,5156.00
2019-05-01T05:40:49.668Z,5196.00
2019-05-01T05:41:49.745Z,5244.00
2019-05-01T05:42:49.752Z,5280.00
2019-05-01T05:43:49.801Z,5332.00
2019-05-01T05:44:49.841Z,5400.00
2019-05-01T05:45:49.947Z,5460.00
2019-05-01T05:46:49.953Z,5520.00
2019-05-01T05:47:49.976Z,5580.00
2019-05-01T05:48:50.014Z,5636.00
2019-05-01T05:49:50.056Z,5692.00
2019-05-01T05:50:50.095Z,5744.00
2019-05-01T05:51:50.155Z,5788.00
2019-05-01T05:52:50.207Z,5832.00
2019-05-01T05:53:50.233Z,5872.00
2019-05-01T05:54:50.275Z,5920.00
2019-05-01T05:55:50.309Z,5984.00
2019-05-01T05:56:50.356Z,6032.00
2019-05-01T05:57:50.418Z,6100.00
2019-05-01T05:58:50.438Z,6160.00
2019-05-01T05:59:50.494Z,6220.00
2019-05-01T06:00:50.561Z,6276.00
2019-05-01T06:01:50.567Z,6332.00
2019-05-01T06:02:50.626Z,6384.00
2019-05-01T06:03:50.664Z,6428.00
2019-05-01T06:04:50.703Z,6480.00
2019-05-01T06:05:50.747Z,6528.00
2019-05-01T06:06:50.790Z,6580.00
2019-05-01T06:07:50.848Z,6656.00
2019-05-01T06:08:50.867Z,6708.00
2019-05-01T06:09:50.914Z,6768.00
2019-05-01T06:10:53.685Z,6844.00
2019-05-01T06:11:51.000Z,6900.00
2019-05-01T06:12:51.062Z,6948.00
2019-05-01T06:13:52.635Z,7012.00
2019-05-01T06:14:51.130Z,7060.00
2019-05-01T06:15:51.173Z,7100.00
2019-05-01T06:16:52.246Z,7144.00
2019-05-01T06:17:51.277Z,7212.00
2019-05-01T06:18:51.376Z,7284.00
2019-05-01T06:19:51.350Z,7356.00
2019-05-01T06:20:51.394Z,7424.00
2019-05-01T06:21:51.440Z,7484.00
2019-05-01T06:22:51.519Z,7544.00
2019-05-01T06:23:52.828Z,7600.00
2019-05-01T06:24:51.576Z,7652.00
2019-05-01T06:25:54.256Z,7720.00
2019-05-01T06:26:51.672Z,7768.00
2019-05-01T06:27:51.724Z,7816.00
2019-05-01T06:28:55.942Z,7856.00
2019-05-01T06:29:51.789Z,7900.00
2019-05-01T06:30:51.835Z,7952.00
2019-05-01T06:31:53.994Z,9720.00
2019-05-01T06:32:51.941Z,19456.00
2019-05-01T06:33:53.057Z,23744.00
2019-05-01T06:34:52.010Z,23232.00
2019-05-01T06:35:52.055Z,23104.00
2019-05-01T06:36:52.097Z,22912.00
2019-05-01T06:37:55.891Z,21760.00
2019-05-01T06:38:52.215Z,21504.00
2019-05-01T06:39:52.237Z,22208.00
2019-05-01T06:40:53.221Z,22336.00
2019-05-01T06:41:52.330Z,21728.00
2019-05-01T06:42:52.367Z,21760.00
2019-05-01T06:43:52.438Z,21984.00
2019-05-01T06:44:52.456Z,22336.00
2019-05-01T06:45:52.688Z,22336.00
2019-05-01T06:46:52.557Z,22272.00
2019-05-01T06:47:52.777Z,22368.00
2019-05-01T06:48:53.524Z,22528.00
2019-05-01T06:49:52.683Z,22336.00
2019-05-01T06:50:52.737Z,22816.00
2019-05-01T06:51:53.606Z,23136.00
2019-05-01T06:52:52.827Z,23392.00
2019-05-01T06:53:52.885Z,22944.00
2019-05-01T06:54:53.597Z,23360.00
2019-05-01T06:55:52.963Z,24640.00
2019-05-01T06:56:53.014Z,25472.00
2019-05-01T06:57:53.056Z,26080.00
2019-05-01T06:58:55.299Z,25728.00
2019-05-01T06:59:53.216Z,26464.00
2019-05-01T07:00:53.192Z,30976.00
2019-05-01T07:01:58.425Z,26752.00
2019-05-01T07:02:53.290Z,26144.00
2019-05-01T07:04:03.388Z,28544.00
2019-05-01T07:04:53.404Z,30784.00
2019-05-01T07:05:54.450Z,30944.00
2019-05-01T07:06:53.520Z,32096.00
2019-05-01T07:07:54.984Z,32288.00
2019-05-01T07:08:53.566Z,31776.00
2019-05-01T07:09:53.634Z,33024.00
2019-05-01T07:10:53.669Z,34496.00
2019-05-01T07:11:54.590Z,35744.00
2019-05-01T07:12:53.785Z,35520.00
2019-05-01T07:13:55.682Z,35296.00
2019-05-01T07:14:53.874Z,34496.00
2019-05-01T07:15:58.813Z,35008.00
2019-05-01T07:16:53.949Z,37568.00
2019-05-01T07:17:53.998Z,39168.00
2019-05-01T07:18:57.988Z,40416.00
2019-05-01T07:19:54.129Z,50432.00
2019-05-01T07:20:54.142Z,46496.00
2019-05-01T07:21:54.190Z,47776.00
2019-05-01T07:22:54.245Z,49728.00
2019-05-01T07:23:54.287Z,49440.00
2019-05-01T07:24:54.357Z,49504.00
2019-05-01T07:25:54.393Z,52544.00
2019-05-01T07:26:54.438Z,53920.00
2019-05-01T07:27:58.443Z,52416.00
2019-05-01T07:28:54.530Z,52000.00
2019-05-01T07:29:54.605Z,54080.00
2019-05-01T07:30:55.115Z,56704.00
2019-05-01T07:31:54.770Z,56640.00
2019-05-01T07:32:54.726Z,57920.00
2019-05-01T07:33:54.775Z,59136.00
2019-05-01T07:34:56.859Z,56608.00
2019-05-01T07:35:54.910Z,53824.00
2019-05-01T07:36:54.933Z,54624.00
2019-05-01T07:37:57.620Z,58592.00
2019-05-01T07:38:55.052Z,64128.00
2019-05-01T07:39:55.074Z,66176.00
2019-05-01T07:40:58.862Z,61632.00
2019-05-01T07:41:55.175Z,57312.00
2019-05-01T07:42:55.220Z,56320.00
2019-05-01T07:43:59.582Z,59808.00
2019-05-01T07:44:55.329Z,64480.00
2019-05-01T07:45:55.387Z,64704.00
2019-05-01T07:46:56.201Z,61536.00
2019-05-01T07:47:55.475Z,60992.00
2019-05-01T07:48:55.513Z,61056.00
2019-05-01T07:49:55.560Z,58336.00
2019-05-01T07:50:55.627Z,56128.00
2019-05-01T07:51:55.671Z,56192.00
2019-05-01T07:52:55.705Z,58048.00
2019-05-01T07:53:59.033Z,59392.00
2019-05-01T07:54:55.807Z,61280.00
2019-05-01T07:55:55.875Z,64320.00
2019-05-01T07:56:58.638Z,67008.00
2019-05-01T07:57:55.955Z,64608.00
2019-05-01T07:58:56.001Z,59616.00
2019-05-01T07:59:58.156Z,52832.00
2019-05-01T08:00:56.124Z,52928.00
2019-05-01T08:01:56.169Z,59328.00
2019-05-01T08:02:56.204Z,65088.00
2019-05-01T08:03:56.257Z,65344.00
2019-05-01T08:04:56.304Z,61632.00
2019-05-01T08:05:56.376Z,60352.00
2019-05-01T08:06:57.169Z,61568.00
2019-05-01T08:07:56.442Z,63584.00
2019-05-01T08:08:56.501Z,67776.00
2019-05-01T08:09:56.543Z,69440.00
2019-05-01T08:10:59.949Z,69248.00
2019-05-01T08:11:56.647Z,68320.00
2019-05-01T08:13:00.448Z,68416.00
2019-05-01T08:14:07.067Z,69312.00
2019-05-01T08:14:56.795Z,69856.00
2019-05-01T08:15:56.869Z,70048.00
2019-05-01T08:16:56.891Z,67008.00
2019-05-01T08:17:56.975Z,63072.00
2019-05-01T08:18:59.018Z,62208.00
2019-05-01T08:19:57.035Z,64672.00
2019-05-01T08:20:57.096Z,69568.00
2019-05-01T08:22:01.396Z,72768.00
2019-05-01T08:22:57.186Z,71968.00
2019-05-01T08:23:57.256Z,68320.00
2019-05-01T08:24:58.706Z,65728.00
2019-05-01T08:25:57.337Z,68288.00
2019-05-01T08:26:57.407Z,69792.00
2019-05-01T08:27:58.119Z,68448.00
2019-05-01T08:28:57.495Z,65664.00
2019-05-01T08:29:57.531Z,64800.00
2019-05-01T08:30:57.594Z,70272.00
2019-05-01T08:31:58.756Z,75680.00
2019-05-01T08:32:57.698Z,78016.00
2019-05-01T08:33:57.734Z,77536.00
2019-05-01T08:35:00.628Z,76704.00
2019-05-01T08:35:57.841Z,75648.00
2019-05-01T08:36:57.901Z,72736.00
2019-05-01T08:37:58.536Z,71072.00
2019-05-01T08:38:57.984Z,73664.00
2019-05-01T08:39:58.048Z,76064.00
2019-05-01T08:40:58.088Z,76160.00
2019-05-01T08:41:58.159Z,72448.00
2019-05-01T08:42:58.198Z,70080.00
2019-05-01T08:43:58.236Z,72576.00
2019-05-01T08:44:59.961Z,80352.00
2019-05-01T08:45:58.345Z,86656.00
2019-05-01T08:46:58.406Z,86112.00
2019-05-01T08:48:00.374Z,83232.00
2019-05-01T08:48:58.589Z,77664.00
2019-05-01T08:49:58.536Z,74336.00
2019-05-01T08:50:59.120Z,71488.00
2019-05-01T08:51:58.668Z,74016.00
2019-05-01T08:52:58.709Z,83104.00
2019-05-01T08:53:59.565Z,92576.00
2019-05-01T08:54:58.791Z,96384.00
2019-05-01T08:55:58.870Z,92896.00
2019-05-01T08:56:59.985Z,86144.00
2019-05-01T08:57:58.998Z,81408.00
2019-05-01T08:58:58.992Z,78976.00
2019-05-01T09:00:00.416Z,81248.00
2019-05-01T09:00:59.097Z,85088.00
2019-05-01T09:02:09.050Z,90400.00
2019-05-01T09:03:08.144Z,90048.00
2019-05-01T09:04:11.835Z,86368.00
2019-05-01T09:05:02.597Z,85600.00
2019-05-01T09:05:59.379Z,89024.00
2019-05-01T09:06:59.409Z,92736.00
2019-05-01T09:07:59.492Z,94048.00
2019-05-01T09:09:02.984Z,93568.00
2019-05-01T09:09:59.554Z,90016.00
2019-05-01T09:11:00.591Z,88512.00
2019-05-01T09:11:59.654Z,88352.00
2019-05-01T09:12:59.718Z,90400.00
2019-05-01T09:14:00.182Z,93984.00
2019-05-01T09:14:59.802Z,94560.00
2019-05-01T09:15:59.859Z,91232.00
2019-05-01T09:16:59.899Z,88448.00
2019-05-01T09:17:59.990Z,88128.00
2019-05-01T09:19:00.002Z,95808.00
2019-05-01T09:20:00.069Z,103232.00
2019-05-01T09:21:00.109Z,108320.00
2019-05-01T09:22:00.154Z,105664.00
2019-05-01T09:23:00.241Z,98048.00
2019-05-01T09:24:00.256Z,91360.00
2019-05-01T09:25:01.762Z,88512.00
2019-05-01T09:26:00.370Z,90400.00
2019-05-01T09:27:00.421Z,92960.00
2019-05-01T09:28:04.203Z,94688.00
2019-05-01T09:29:00.509Z,93344.00
2019-05-01T09:30:00.610Z,90784.00
2019-05-01T09:31:02.153Z,90176.00
2019-05-01T09:32:00.664Z,91616.00
2019-05-01T09:33:00.770Z,98912.00
2019-05-01T09:34:00.763Z,104704.00
2019-05-01T09:35:00.816Z,106592.00
2019-05-01T09:36:00.865Z,105440.00
2019-05-01T09:37:00.927Z,100512.00
2019-05-01T09:38:01.009Z,100832.00
2019-05-01T09:39:01.034Z,105696.00
2019-05-01T09:40:04.255Z,107744.00
2019-05-01T09:41:01.121Z,107392.00
2019-05-01T09:42:01.179Z,104256.00
2019-05-01T09:43:01.261Z,99776.00
2019-05-01T09:44:01.303Z,98080.00
2019-05-01T09:45:01.335Z,97888.00
2019-05-01T09:46:01.383Z,101216.00
2019-05-01T09:47:01.429Z,102848.00
2019-05-01T09:48:01.536Z,102208.00
2019-05-01T09:49:01.543Z,98368.00
2019-05-01T09:50:01.593Z,93376.00
2019-05-01T09:51:05.416Z,88064.00
2019-05-01T09:52:01.677Z,91232.00
2019-05-01T09:53:01.729Z,97184.00
2019-05-01T09:54:05.749Z,103328.00
2019-05-01T09:55:01.829Z,108544.00
2019-05-01T09:56:03.224Z,110624.00
2019-05-01T09:57:01.931Z,108416.00
2019-05-01T09:58:02.861Z,104032.00
2019-05-01T09:59:02.081Z,99616.00
2019-05-01T10:00:02.087Z,95712.00
2019-05-01T10:01:02.129Z,93056.00
2019-05-01T10:02:03.100Z,92992.00
2019-05-01T10:03:02.238Z,95488.00
2019-05-01T10:04:02.307Z,99168.00
2019-05-01T10:05:06.718Z,102336.00
2019-05-01T10:06:02.401Z,103232.00
2019-05-01T10:07:02.447Z,103488.00
2019-05-01T10:08:04.039Z,104800.00
2019-05-01T10:09:02.576Z,106624.00
2019-05-01T10:10:02.580Z,107168.00
2019-05-01T10:11:05.113Z,102624.00
2019-05-01T10:12:02.681Z,98784.00
2019-05-01T10:13:02.792Z,94144.00
2019-05-01T10:14:04.144Z,90592.00
2019-05-01T10:15:02.834Z,94624.00
2019-05-01T10:16:02.888Z,100480.00
2019-05-01T10:17:02.957Z,106880.00
2019-05-01T10:18:02.984Z,114080.00
2019-05-01T10:19:03.070Z,114976.00
2019-05-01T10:20:03.135Z,110240.00
2019-05-01T10:21:03.140Z,103840.00
2019-05-01T10:22:03.752Z,98976.00
2019-05-01T10:23:03.262Z,93696.00
2019-05-01T10:24:03.323Z,92000.00
2019-05-01T10:25:03.381Z,95200.00
2019-05-01T10:26:03.392Z,99776.00
2019-05-01T10:27:03.440Z,101600.00
2019-05-01T10:28:07.341Z,103424.00
2019-05-01T10:29:03.556Z,104384.00
2019-05-01T10:30:03.613Z,106432.00
2019-05-01T10:31:07.044Z,107680.00
2019-05-01T10:32:03.699Z,105344.00
2019-05-01T10:33:03.747Z,102304.00
2019-05-01T10:34:07.696Z,100768.00
2019-05-01T10:35:03.870Z,101504.00
2019-05-01T10:36:03.894Z,104480.00
2019-05-01T10:37:03.944Z,107840.00
2019-05-01T10:38:04.730Z,110208.00
2019-05-01T10:39:04.057Z,113536.00
2019-05-01T10:40:04.206Z,117248.00
2019-05-01T10:41:08.638Z,118272.00
2019-05-01T10:42:04.211Z,118944.00
2019-05-01T10:43:04.249Z,119680.00
2019-05-01T10:44:04.311Z,116896.00
2019-05-01T10:45:04.367Z,114912.00
2019-05-01T10:46:04.428Z,112640.00
2019-05-01T10:47:04.459Z,110176.00
2019-05-01T10:48:04.504Z,110048.00
2019-05-01T10:49:04.548Z,110464.00
2019-05-01T10:50:04.600Z,107840.00
2019-05-01T10:51:04.671Z,107808.00
2019-05-01T10:52:13.877Z,108000.00
2019-05-01T10:53:04.747Z,109600.00
2019-05-01T10:54:04.807Z,115936.00
2019-05-01T10:55:04.857Z,125568.00
2019-05-01T10:56:04.917Z,130336.00
2019-05-01T10:57:04.956Z,127616.00
2019-05-01T10:58:05.022Z,122976.00
2019-05-01T10:59:05.059Z,117856.00
2019-05-01T11:00:05.109Z,113536.00
2019-05-01T11:01:05.186Z,112672.00
2019-05-01T11:02:05.203Z,111968.00
2019-05-01T11:03:05.266Z,109824.00
2019-05-01T11:04:05.302Z,107456.00
2019-05-01T11:05:05.371Z,105440.00
2019-05-01T11:06:05.428Z,105280.00
2019-05-01T11:07:05.456Z,105184.00
2019-05-01T11:08:05.509Z,105568.00
2019-05-01T11:09:05.567Z,107136.00
2019-05-01T11:10:05.608Z,108096.00
2019-05-01T11:11:05.696Z,107872.00
2019-05-01T11:12:05.725Z,107584.00
2019-05-01T11:13:07.752Z,107136.00
2019-05-01T11:14:05.815Z,105888.00
2019-05-01T11:15:05.863Z,105632.00
2019-05-01T11:16:06.058Z,106112.00
2019-05-01T11:17:05.965Z,105408.00
2019-05-01T11:18:06.023Z,104704.00
2019-05-01T11:19:06.071Z,105280.00
2019-05-01T11:20:06.127Z,107488.00
2019-05-01T11:21:06.189Z,107392.00
2019-05-01T11:22:06.251Z,109728.00
2019-05-01T11:23:06.276Z,109856.00
2019-05-01T11:24:06.329Z,108640.00
2019-05-01T11:25:06.401Z,107712.00
2019-05-01T11:26:06.446Z,107328.00
2019-05-01T11:27:06.594Z,104480.00
2019-05-01T11:28:06.529Z,100960.00
2019-05-01T11:29:06.590Z,100032.00
2019-05-01T11:30:06.639Z,101248.00
2019-05-01T11:31:06.684Z,100864.00
2019-05-01T11:32:06.752Z,100992.00
2019-05-01T11:33:06.785Z,101248.00
2019-05-01T11:34:06.858Z,102784.00
2019-05-01T11:35:06.897Z,105088.00
2019-05-01T11:36:09.697Z,104064.00
2019-05-01T11:37:07.032Z,102016.00
2019-05-01T11:38:07.051Z,99104.00
2019-05-01T11:39:07.104Z,96448.00
2019-05-01T11:40:07.152Z,98112.00
2019-05-01T11:41:07.204Z,100320.00
2019-05-01T11:42:07.275Z,101440.00
2019-05-01T11:43:07.332Z,102752.00
2019-05-01T11:44:07.360Z,102816.00
2019-05-01T11:45:07.490Z,101344.00
2019-05-01T11:46:07.473Z,97088.00
2019-05-01T11:47:07.519Z,95072.00
2019-05-01T11:48:07.612Z,93472.00
2019-05-01T11:49:07.631Z,93600.00
2019-05-01T11:50:07.704Z,92736.00
2019-05-01T11:51:07.753Z,92992.00
2019-05-01T11:52:07.796Z,93184.00
2019-05-01T11:53:07.890Z,95520.00
2019-05-01T11:54:07.930Z,96704.00
2019-05-01T11:55:07.952Z,96064.00
2019-05-01T11:56:08.087Z,96416.00
2019-05-01T11:57:08.072Z,94816.00
2019-05-01T11:58:08.134Z,93248.00
2019-05-01T11:59:08.172Z,92384.00
2019-05-01T12:00:08.252Z,91200.00
2019-05-01T12:01:08.287Z,92448.00
2019-05-01T12:02:08.334Z,92416.00
2019-05-01T12:03:08.413Z,93632.00
2019-05-01T12:04:08.445Z,91680.00
2019-05-01T12:05:08.551Z,88512.00
2019-05-01T12:06:08.556Z,86208.00
2019-05-01T12:07:08.623Z,85312.00
2019-05-01T12:08:08.700Z,83488.00
2019-05-01T12:09:08.738Z,86528.00
2019-05-01T12:10:08.783Z,88768.00
2019-05-01T12:11:08.845Z,90240.00
2019-05-01T12:12:08.911Z,89984.00
2019-05-01T12:13:08.988Z,91264.00
2019-05-01T12:14:09.022Z,91840.00